Time;durP1;ratioP1;P1;durP2;ratioP2;P2;SDS_P1;SDS_P2;PMS_P1;PMS_P2;Temp;Humidity;BMP_temperature;BMP_pressure;BME280_temperature;BME280_humidity;BME280_pressure;Samples;Min_cycle;Max_cycle;Signal;HPM_P1;HPM_P2
2022/10/29 04:00:30;;;;;;;0.60;0.10;;;;;;;;;;6003750;23;20374;31
2022/10/29 04:02:58;;;;;;;0.60;0.10;;;16.10;1.00;;;;;;4926940;29;20476;-77
2022/10/29 04:05:27;;;;;;;0.60;0.10;;;16.10;1.00;;;;;;4925237;29;20461;-76
2022/10/29 04:07:54;;;;;;;0.60;0.10;;;16.00;1.00;;;;;;4918183;29;20437;-78
2022/10/29 04:10:24;;;;;;;0.60;0.10;;;15.90;1.00;;;;;;4922711;29;20444;-78
2022/10/29 04:12:52;;;;;;;0.60;0.10;;;15.90;1.00;;;;;;4902958;29;20441;-78
2022/10/29 04:15:20;;;;;;;0.60;0.10;;;15.90;1.00;;;;;;4904104;29;20462;-77
2022/10/29 04:17:51;;;;;;;0.60;0.10;;;15.90;1.00;;;;;;4904392;29;20885;-78
2022/10/29 04:20:19;;;;;;;0.60;0.10;;;15.90;1.00;;;;;;4904457;29;20481;-77
2022/10/29 04:23:06;;;;;;;0.60;0.10;;;15.90;1.00;;;;;;4903375;29;20536;-77
2022/10/29 04:25:56;;;;;;;0.60;0.10;;;15.90;1.00;;;;;;4902975;29;20437;-77
2022/10/29 04:28:44;;;;;;;0.60;0.10;;;15.80;1.00;;;;;;4903289;29;20474;-78
2022/10/29 04:31:12;;;;;;;0.60;0.10;;;15.80;1.00;;;;;;4904007;29;20477;-79
2022/10/29 04:33:41;;;;;;;0.60;0.10;;;15.80;1.00;;;;;;4900329;29;20441;-77
2022/10/29 04:36:10;;;;;;;0.60;0.10;;;15.80;1.00;;;;;;4908052;29;20450;-78
2022/10/29 04:38:38;;;;;;;0.60;0.13;;;15.80;1.00;;;;;;4903651;29;20481;-78
2022/10/29 04:41:06;;;;;;;0.60;0.10;;;15.80;1.00;;;;;;4903534;29;20508;-77
2022/10/29 04:43:34;;;;;;;0.60;0.10;;;15.80;1.00;;;;;;4903673;29;20468;-77
2022/10/29 04:46:01;;;;;;;0.60;0.20;;;15.80;1.00;;;;;;4905340;29;20513;-78
2022/10/29 04:48:29;;;;;;;0.60;0.10;;;15.80;1.00;;;;;;4968819;23;20495;-74
2022/10/29 04:50:59;;;;;;;0.60;0.10;;;15.80;1.00;;;;;;4944477;29;20456;-74
2022/10/29 04:53:26;;;;;;;0.60;0.10;;;15.80;1.00;;;;;;4954945;29;20453;-73
2022/10/29 04:56:00;;;;;;;0.60;0.10;;;15.70;1.00;;;;;;4951530;29;20483;-72
2022/10/29 04:58:28;;;;;;;0.60;0.10;;;15.70;1.00;;;;;;4945472;29;20463;-73
2022/10/29 05:01:01;;;;;;;0.60;0.10;;;15.80;1.00;;;;;;4937504;29;20448;-73
2022/10/29 05:03:29;;;;;;;0.70;0.63;;;15.80;1.00;;;;;;4938121;29;20440;-73
2022/10/29 05:05:59;;;;;;;0.60;0.40;;;15.80;1.00;;;;;;4937805;29;20455;-73
2022/10/29 05:08:27;;;;;;;0.60;0.13;;;15.80;1.00;;;;;;4937017;29;20534;-73
2022/10/29 05:10:54;;;;;;;0.60;0.10;;;15.80;1.00;;;;;;4939420;29;20448;-73
2022/10/29 05:13:22;;;;;;;0.60;0.10;;;15.50;1.00;;;;;;4936978;29;20448;-73
2022/10/29 05:15:51;;;;;;;0.60;0.10;;;15.80;1.00;;;;;;4936823;29;20519;-72
2022/10/29 05:18:20;;;;;;;0.60;0.20;;;15.80;1.00;;;;;;4936950;29;20543;-73
2022/10/29 05:20:48;;;;;;;0.60;0.10;;;15.80;1.00;;;;;;4937904;29;20456;-72
2022/10/29 05:23:17;;;;;;;0.60;0.13;;;15.80;1.00;;;;;;4936798;29;20538;-74
2022/10/29 05:25:47;;;;;;;0.60;0.20;;;15.80;1.00;;;;;;4936733;29;20459;-73
2022/10/29 05:28:18;;;;;;;0.60;0.10;;;15.80;1.00;;;;;;4936765;29;20498;-74
2022/10/29 05:30:47;;;;;;;0.60;0.10;;;15.80;1.00;;;;;;4937996;29;20533;-74
2022/10/29 05:33:16;;;;;;;0.60;0.17;;;15.80;1.00;;;;;;4935908;29;20817;-74
2022/10/29 05:35:45;;;;;;;0.60;0.10;;;15.80;1.00;;;;;;4937021;29;20474;-74
2022/10/29 05:38:15;;;;;;;0.60;0.10;;;15.80;1.00;;;;;;4936703;29;20527;-74
2022/10/29 05:40:45;;;;;;;0.60;0.10;;;15.90;1.00;;;;;;4936486;29;20448;-74
2022/10/29 05:43:13;;;;;;;0.60;0.10;;;15.80;1.00;;;;;;4942457;29;20483;-73
2022/10/29 05:45:42;;;;;;;0.60;0.10;;;15.90;1.00;;;;;;4928819;29;20463;-73
2022/10/29 05:48:11;;;;;;;0.60;0.10;;;15.90;1.00;;;;;;4936000;29;20503;-73
2022/10/29 05:50:44;;;;;;;0.60;0.10;;;15.80;1.00;;;;;;4936276;29;20436;-75
2022/10/29 05:53:14;;;;;;;0.60;0.10;;;15.80;1.00;;;;;;4935945;29;20955;-75
2022/10/29 05:55:44;;;;;;;0.60;0.10;;;15.80;1.00;;;;;;4941332;29;20513;-74
2022/10/29 05:58:14;;;;;;;0.60;0.10;;;15.80;1.00;;;;;;4940031;29;20555;-74
2022/10/29 06:00:43;;;;;;;0.60;0.10;;;15.90;1.00;;;;;;4936459;29;20460;-73
2022/10/29 06:03:13;;;;;;;0.60;0.10;;;15.90;1.00;;;;;;4936075;29;20487;-73
2022/10/29 06:05:41;;;;;;;0.60;0.10;;;15.90;1.00;;;;;;4936007;29;20495;-73
2022/10/29 06:08:09;;;;;;;0.60;0.10;;;15.90;1.00;;;;;;4935413;29;20571;-74
2022/10/29 06:10:37;;;;;;;0.70;0.60;;;15.90;1.00;;;;;;4926634;29;20447;-73
2022/10/29 06:13:11;;;;;;;0.60;0.10;;;15.90;1.00;;;;;;4955269;29;20474;-73
2022/10/29 06:15:39;;;;;;;1.83;1.17;;;15.80;1.00;;;;;;4947561;29;20542;-74
2022/10/29 06:18:07;;;;;;;0.60;0.10;;;15.80;1.00;;;;;;4936831;29;20986;-74
2022/10/29 06:20:36;;;;;;;0.60;0.10;;;15.80;1.00;;;;;;4936640;29;20464;-74
2022/10/29 06:23:04;;;;;;;0.60;0.10;;;15.80;1.00;;;;;;4935789;29;20512;-74
2022/10/29 06:25:32;;;;;;;0.60;0.10;;;15.80;1.00;;;;;;4935754;29;20953;-74
2022/10/29 06:28:01;;;;;;;0.60;0.10;;;15.70;1.00;;;;;;4935770;29;20783;-75
2022/10/29 06:30:32;;;;;;;2.43;2.33;;;15.70;1.00;;;;;;4935699;29;20518;-74
2022/10/29 06:33:00;;;;;;;0.60;0.10;;;15.70;1.00;;;;;;4935204;29;20953;-74
2022/10/29 06:35:29;;;;;;;0.60;0.10;;;15.30;1.00;;;;;;4935742;29;20452;-74
2022/10/29 06:37:57;;;;;;;0.60;0.10;;;15.60;1.00;;;;;;4935271;29;20471;-73
2022/10/29 06:40:25;;;;;;;0.60;0.10;;;15.60;1.00;;;;;;4935997;29;20515;-74
2022/10/29 06:42:59;;;;;;;0.60;0.10;;;15.60;1.00;;;;;;4935907;29;20559;-74
2022/10/29 06:45:27;;;;;;;0.60;0.10;;;15.60;1.00;;;;;;4935738;29;20821;-74
2022/10/29 06:47:57;;;;;;;0.70;0.37;;;15.60;1.00;;;;;;4935558;29;20480;-73
2022/10/29 06:50:26;;;;;;;0.60;0.10;;;15.60;1.00;;;;;;4935430;29;20551;-74
2022/10/29 06:52:55;;;;;;;0.60;0.10;;;15.60;1.00;;;;;;4935082;29;20539;-74
2022/10/29 06:55:24;;;;;;;0.60;0.10;;;15.60;1.00;;;;;;4930799;29;20507;-75
2022/10/29 06:58:00;;;;;;;0.60;0.10;;;15.60;1.00;;;;;;4935391;29;20491;-73
2022/10/29 07:00:28;;;;;;;3.77;3.57;;;15.60;1.00;;;;;;4935058;29;20966;-73
2022/10/29 07:02:59;;;;;;;0.60;0.10;;;15.60;1.00;;;;;;4939607;29;20483;-74
2022/10/29 07:05:27;;;;;;;0.60;0.10;;;15.60;1.00;;;;;;4937177;29;20846;-74
2022/10/29 07:07:56;;;;;;;0.60;0.10;;;15.60;1.00;;;;;;4935504;29;20484;-74
2022/10/29 07:10:25;;;;;;;0.60;0.10;;;15.60;1.00;;;;;;4935052;29;20484;-75
2022/10/29 07:12:53;;;;;;;0.60;0.10;;;15.60;1.00;;;;;;4934379;29;20456;-75
2022/10/29 07:15:21;;;;;;;0.60;0.10;;;15.60;1.00;;;;;;4935223;29;20464;-74
2022/10/29 07:17:55;;;;;;;0.60;0.10;;;15.60;1.00;;;;;;4935609;29;20500;-73
2022/10/29 07:20:25;;;;;;;0.60;0.10;;;15.70;1.00;;;;;;4934957;29;20444;-73
2022/10/29 07:22:54;;;;;;;2.87;1.90;;;;;;;;;;4934717;29;20479;-74
2022/10/29 07:25:28;;;;;;;0.60;0.10;;;15.80;1.00;;;;;;4935149;29;20459;-74
2022/10/29 07:28:02;;;;;;;0.60;0.13;;;15.80;1.00;;;;;;4935495;29;20476;-73
2022/10/29 07:30:30;;;;;;;0.60;0.10;;;15.80;1.00;;;;;;4935088;29;20494;-76
2022/10/29 07:32:58;;;;;;;0.60;0.10;;;15.80;1.00;;;;;;4935428;29;20951;-76
2022/10/29 07:35:27;;;;;;;0.60;0.10;;;15.80;1.00;;;;;;4935505;29;20555;-77
2022/10/29 07:37:59;;;;;;;0.60;0.17;;;15.80;1.00;;;;;;4936824;29;20990;-75
2022/10/29 07:40:37;;;;;;;0.60;0.10;;;15.80;1.00;;;;;;4935265;29;20973;-75
2022/10/29 07:43:05;;;;;;;0.60;0.10;;;15.90;1.00;;;;;;4932327;29;21063;-77
2022/10/29 07:45:33;;;;;;;0.60;0.20;;;15.90;1.00;;;;;;4934960;29;20443;-74
2022/10/29 07:48:03;;;;;;;0.60;0.10;;;15.90;1.00;;;;;;4935078;29;20859;-74
2022/10/29 07:50:33;;;;;;;0.60;0.10;;;15.90;1.00;;;;;;4935285;29;20444;-74
2022/10/29 07:53:01;;;;;;;0.60;0.10;;;16.00;1.00;;;;;;4934823;29;20808;-74
2022/10/29 07:55:29;;;;;;;0.60;0.10;;;16.00;1.00;;;;;;4934954;29;20456;-73
2022/10/29 07:58:00;;;;;;;1.33;1.23;;;16.00;1.00;;;;;;4935983;29;20475;-73
2022/10/29 08:00:27;;;;;;;0.60;0.10;;;16.10;1.00;;;;;;4937074;29;20464;-73
2022/10/29 08:02:55;;;;;;;0.60;0.10;;;16.10;1.00;;;;;;4935205;29;20963;-74
2022/10/29 08:05:24;;;;;;;0.60;0.10;;;16.10;1.00;;;;;;4934525;29;20448;-74
2022/10/29 08:07:54;;;;;;;0.60;0.10;;;16.20;1.00;;;;;;4934775;29;20467;-74
2022/10/29 08:10:23;;;;;;;0.60;0.10;;;16.20;1.00;;;;;;4937554;29;20457;-75
2022/10/29 08:12:52;;;;;;;0.60;0.10;;;16.20;1.00;;;;;;4948631;29;20460;-74
2022/10/29 08:15:21;;;;;;;0.60;0.10;;;16.20;1.00;;;;;;4935415;29;20447;-75
2022/10/29 08:17:50;;;;;;;0.60;0.20;;;16.30;1.00;;;;;;4948840;29;20618;-76
2022/10/29 08:20:18;;;;;;;0.60;0.10;;;16.40;1.00;;;;;;4934410;29;21291;-73
2022/10/29 08:22:46;;;;;;;0.60;0.20;;;16.40;1.00;;;;;;4940328;29;20506;-75
2022/10/29 08:25:16;;;;;;;0.60;0.10;;;16.40;1.00;;;;;;4945463;29;20487;-75
2022/10/29 08:27:44;;;;;;;0.60;0.10;;;16.50;1.00;;;;;;4936091;29;20464;-76
2022/10/29 08:30:14;;;;;;;0.60;0.10;;;16.50;1.00;;;;;;4941875;29;20989;-74
2022/10/29 08:32:46;;;;;;;0.60;0.10;;;16.60;1.00;;;;;;4933751;29;20460;-74
2022/10/29 08:35:14;;;;;;;0.60;0.10;;;16.60;1.00;;;;;;4941846;29;20444;-75
2022/10/29 08:37:43;;;;;;;0.60;0.10;;;16.60;1.00;;;;;;4934177;29;20475;-75
2022/10/29 08:40:19;;;;;;;0.60;0.10;;;16.70;1.00;;;;;;4935085;29;20801;-75
2022/10/29 08:42:56;;;;;;;0.60;0.10;;;16.70;1.00;;;;;;4938750;29;20476;-74
2022/10/29 08:45:30;;;;;;;0.60;0.20;;;16.70;1.00;;;;;;4938426;29;20495;-73
2022/10/29 08:48:19;;;;;;;0.60;0.10;;;16.70;1.00;;;;;;4939311;29;20475;-74
2022/10/29 08:50:51;;;;;;;0.60;0.10;;;16.80;1.00;;;;;;4939551;29;20831;-73
2022/10/29 08:53:22;;;;;;;0.60;0.10;;;16.80;1.00;;;;;;4938174;29;20460;-76
2022/10/29 08:55:54;;;;;;;0.60;0.10;;;16.80;1.00;;;;;;4937715;29;20451;-74
2022/10/29 08:58:30;;;;;;;0.60;0.10;;;16.80;1.00;;;;;;4938460;29;20472;-75
2022/10/29 09:00:59;;;;;;;0.60;0.10;;;16.80;1.00;;;;;;4942491;29;20496;-75
2022/10/29 09:03:28;;;;;;;0.60;0.10;;;16.90;1.00;;;;;;4936735;29;20452;-75
2022/10/29 09:06:07;;;;;;;0.60;0.10;;;16.90;1.00;;;;;;4937616;29;21022;-73
2022/10/29 09:08:45;;;;;;;0.60;0.10;;;16.90;1.00;;;;;;4939953;29;20511;-74
2022/10/29 09:11:28;;;;;;;0.60;0.13;;;16.90;1.00;;;;;;4955345;29;20497;-77
2022/10/29 09:14:09;;;;;;;0.60;0.13;;;17.00;1.00;;;;;;4955994;29;20447;-74
2022/10/29 09:16:45;;;;;;;0.60;0.10;;;17.10;1.00;;;;;;4956407;29;20459;-73
2022/10/29 09:19:27;;;;;;;0.60;0.10;;;17.10;1.00;;;;;;4948773;29;20447;-74
2022/10/29 09:22:02;;;;;;;0.60;0.10;;;17.10;1.00;;;;;;4944751;29;20435;-74
2022/10/29 09:24:36;;;;;;;0.60;0.20;;;17.20;1.00;;;;;;4956030;29;21000;-73
2022/10/29 09:27:14;;;;;;;0.60;0.10;;;17.30;1.00;;;;;;4956488;29;20467;-74
2022/10/29 09:30:01;;;;;;;0.60;0.10;;;17.30;1.00;;;;;;4950843;29;20458;-74
2022/10/29 09:32:34;;;;;;;0.60;0.10;;;17.30;1.00;;;;;;4940078;29;20452;-74
2022/10/29 09:35:04;;;;;;;0.60;0.10;;;17.40;1.00;;;;;;4937019;29;20448;-78
2022/10/29 09:37:40;;;;;;;0.60;0.10;;;17.40;1.00;;;;;;4938000;29;20487;-78
2022/10/29 09:40:22;;;;;;;0.60;0.10;;;17.50;1.00;;;;;;4938032;29;20464;-74
2022/10/29 09:42:52;;;;;;;0.60;0.10;;;17.50;1.00;;;;;;4930523;29;20435;-74
2022/10/29 09:45:24;;;;;;;0.60;0.20;;;17.70;1.00;;;;;;4939119;29;20480;-75
2022/10/29 09:48:00;;;;;;;0.60;0.20;;;17.70;1.00;;;;;;4936163;29;20487;-76
2022/10/29 09:50:35;;;;;;;0.60;0.13;;;17.80;1.00;;;;;;4936222;29;20471;-74
2022/10/29 09:53:03;;;;;;;0.60;0.20;;;17.80;1.00;;;;;;4936068;29;20969;-74
2022/10/29 09:55:38;;;;;;;0.60;0.20;;;17.80;1.00;;;;;;4946364;29;20448;-76
2022/10/29 09:58:12;;;;;;;0.60;0.10;;;17.90;1.00;;;;;;4955770;29;20521;-75
2022/10/29 10:00:40;;;;;;;0.60;0.30;;;17.90;1.00;;;;;;4952651;29;20444;-74
2022/10/29 10:03:15;;;;;;;1.23;1.13;;;18.00;1.00;;;;;;4936263;29;20459;-75
2022/10/29 10:06:01;;;;;;;0.60;0.20;;;18.00;1.00;;;;;;4939899;29;20470;-74
2022/10/29 10:08:30;;;;;;;0.80;0.50;;;18.00;1.00;;;;;;4947217;29;20467;-76
2022/10/29 10:11:00;;;;;;;0.60;0.10;;;18.00;1.00;;;;;;4949986;29;20523;-75
2022/10/29 10:13:31;;;;;;;0.60;0.13;;;18.00;1.00;;;;;;4935675;29;20511;-74
2022/10/29 10:16:01;;;;;;;0.60;0.13;;;18.00;1.00;;;;;;4936099;29;20943;-74
2022/10/29 10:18:40;;;;;;;0.60;0.10;;;18.00;1.00;;;;;;4936246;29;20483;-75
2022/10/29 10:21:10;;;;;;;0.60;0.13;;;18.10;1.00;;;;;;4924244;29;20444;-75
2022/10/29 10:23:43;;;;;;;0.60;0.10;;;18.10;1.00;;;;;;4936254;29;21021;-75
2022/10/29 10:26:30;;;;;;;0.60;0.10;;;18.20;1.00;;;;;;4937492;29;20480;-76
2022/10/29 10:29:10;;;;;;;0.60;0.10;;;18.10;1.00;;;;;;4939489;29;20447;-73
2022/10/29 10:31:38;;;;;;;0.60;0.10;;;18.20;1.00;;;;;;4937512;29;20447;-74
2022/10/29 10:34:13;;;;;;;0.60;0.10;;;18.20;1.00;;;;;;4936702;29;20515;-75
2022/10/29 10:36:45;;;;;;;0.60;0.10;;;18.30;1.00;;;;;;4936399;29;20448;-75
2022/10/29 10:39:24;;;;;;;0.60;0.10;;;18.40;1.00;;;;;;4936534;29;20448;-74
2022/10/29 10:41:53;;;;;;;0.60;0.10;;;18.40;1.00;;;;;;4936395;29;20483;-75
2022/10/29 10:44:23;;;;;;;0.60;0.30;;;18.50;1.00;;;;;;4935628;29;20967;-74
2022/10/29 10:49:32;;;;;;;0.60;0.20;;;18.70;1.00;;;;;;4935393;29;20582;-77
2022/10/29 10:52:03;;;;;;;0.60;0.10;;;18.80;1.00;;;;;;4931810;29;20511;-76
2022/10/29 10:54:36;;;;;;;0.60;0.10;;;18.90;1.00;;;;;;4934738;29;20440;-77
2022/10/29 10:57:17;;;;;;;0.60;0.10;;;19.10;1.00;;;;;;4936401;29;20966;-76
2022/10/29 10:59:54;;;;;;;0.60;0.27;;;19.20;1.00;;;;;;4918364;29;20441;-75
2022/10/29 11:02:30;;;;;;;0.60;0.10;;;19.30;1.00;;;;;;4917017;29;20469;-77
2022/10/29 11:05:00;;;;;;;0.60;0.10;;;19.50;1.00;;;;;;4931526;29;20495;-76
2022/10/29 11:07:40;;;;;;;0.60;0.10;;;19.50;1.00;;;;;;4928262;29;20484;-76
2022/10/29 11:10:12;;;;;;;0.60;0.10;;;19.50;1.00;;;;;;4934764;29;20548;-77
2022/10/29 11:12:44;;;;;;;0.60;0.10;;;19.60;1.00;;;;;;4935801;29;20444;-78
2022/10/29 11:15:17;;;;;;;0.60;0.10;;;19.60;1.00;;;;;;4935920;29;20459;-75
2022/10/29 11:17:51;;;;;;;0.60;0.20;;;19.60;1.00;;;;;;4933456;29;20476;-75
2022/10/29 11:20:24;;;;;;;0.60;0.10;;;19.60;1.00;;;;;;4934727;29;20467;-76
2022/10/29 11:23:02;;;;;;;0.60;0.10;;;19.60;1.00;;;;;;4933056;29;20454;-76
2022/10/29 11:25:39;;;;;;;0.60;0.10;;;19.60;1.00;;;;;;4918620;29;20480;-76
2022/10/29 11:28:18;;;;;;;0.60;0.10;;;19.60;1.00;;;;;;4917772;29;20472;-75
2022/10/29 11:30:52;;;;;;;0.60;0.20;;;19.60;1.00;;;;;;4932015;29;20458;-75
2022/10/29 11:33:24;;;;;;;0.60;0.10;;;19.70;1.00;;;;;;4934048;29;20467;-77
2022/10/29 11:35:57;;;;;;;0.60;0.20;;;19.70;1.00;;;;;;4935082;29;20444;-76
2022/10/29 11:38:36;;;;;;;1.27;0.73;;;19.70;1.00;;;;;;4931821;29;20471;-76
2022/10/29 11:41:10;;;;;;;0.60;0.20;;;19.70;1.00;;;;;;4928748;29;20451;-77
2022/10/29 11:43:38;;;;;;;0.60;0.13;;;19.70;1.00;;;;;;4918126;29;20448;-77
2022/10/29 11:46:15;;;;;;;0.60;0.20;;;19.70;1.00;;;;;;4922693;29;20491;-76
2022/10/29 11:48:56;;;;;;;0.60;0.10;;;19.70;1.00;;;;;;4938438;29;20480;-74
2022/10/29 11:51:33;;;;;;;0.60;0.13;;;19.70;1.00;;;;;;4937473;29;20483;-77
2022/10/29 11:54:04;;;;;;;0.60;0.20;;;19.80;1.00;;;;;;4945195;29;20440;-75
2022/10/29 11:56:47;;;;;;;0.60;0.10;;;19.80;1.00;;;;;;4941248;29;20448;-76
2022/10/29 11:59:26;;;;;;;0.60;0.10;;;19.80;1.00;;;;;;4945728;29;20820;-76
2022/10/29 12:02:04;;;;;;;0.60;0.10;;;19.90;1.00;;;;;;4941594;29;20451;-76
2022/10/29 12:04:35;;;;;;;0.60;0.20;;;19.90;1.00;;;;;;4937406;29;20448;-76
2022/10/29 12:07:18;;;;;;;0.60;0.20;;;20.00;1.00;;;;;;4933454;29;20641;-76
2022/10/29 12:10:10;;;;;;;0.60;0.10;;;20.00;1.00;;;;;;4933848;29;20464;-75
2022/10/29 12:12:48;;;;;;;0.60;0.20;;;20.10;1.00;;;;;;4935542;29;20455;-77
2022/10/29 12:15:23;;;;;;;0.60;0.10;;;20.10;1.00;;;;;;4939190;29;20997;-76
2022/10/29 12:18:04;;;;;;;0.60;0.20;;;20.20;1.00;;;;;;4940880;29;20482;-76
2022/10/29 12:20:44;;;;;;;0.67;0.27;;;20.20;1.00;;;;;;4942052;29;20828;-76
2022/10/29 12:23:24;;;;;;;0.60;0.10;;;20.20;1.00;;;;;;4946954;29;20451;-76
2022/10/29 12:26:03;;;;;;;0.60;0.10;;;20.20;1.00;;;;;;4954316;29;20475;-77
2022/10/29 12:28:41;;;;;;;0.60;0.10;;;20.20;1.00;;;;;;4952685;29;20464;-76
2022/10/29 12:31:24;;;;;;;0.60;0.10;;;20.30;1.00;;;;;;4944148;29;20471;-77
2022/10/29 12:34:01;;;;;;;0.60;0.20;;;20.20;1.00;;;;;;4935980;29;20488;-76
2022/10/29 12:36:36;;;;;;;0.60;0.10;;;20.30;1.00;;;;;;4943308;29;20443;-76
2022/10/29 12:39:10;;;;;;;0.60;0.10;;;20.30;1.00;;;;;;4946394;29;20514;-76
2022/10/29 12:41:42;;;;;;;0.60;0.10;;;20.30;1.00;;;;;;4945910;29;20444;-78
2022/10/29 12:44:18;;;;;;;0.60;0.10;;;20.30;1.00;;;;;;4942712;29;20451;-77
2022/10/29 12:46:54;;;;;;;0.60;0.10;;;20.30;1.00;;;;;;4939988;29;20543;-76
2022/10/29 12:49:42;;;;;;;0.60;0.10;;;20.20;1.00;;;;;;4939888;29;20459;-76
2022/10/29 12:52:15;;;;;;;0.60;0.10;;;20.20;1.00;;;;;;4939648;29;20458;-77
2022/10/29 12:54:45;;;;;;;0.60;0.10;;;20.20;1.00;;;;;;4939717;29;20499;-77
2022/10/29 12:57:30;;;;;;;0.60;0.10;;;20.20;1.00;;;;;;4936284;29;20503;-77
2022/10/29 13:00:36;;;;;;;0.60;0.20;;;20.20;1.00;;;;;;4939855;29;20444;-77
2022/10/29 13:03:04;;;;;;;0.60;0.10;;;20.20;1.00;;;;;;4939700;29;20882;-78
2022/10/29 13:05:41;;;;;;;0.60;0.20;;;20.20;1.00;;;;;;4939946;29;20452;-76
2022/10/29 13:08:27;;;;;;;0.60;0.10;;;20.20;1.00;;;;;;4920836;29;20528;-76
2022/10/29 13:10:56;;;;;;;0.60;0.10;;;20.20;1.00;;;;;;4920151;29;20453;-77
2022/10/29 13:13:50;;;;;;;0.60;0.20;;;20.10;1.00;;;;;;4921959;29;20491;-77
2022/10/29 13:16:21;;;;;;;0.60;0.10;;;20.10;1.00;;;;;;4921694;29;20544;-76
2022/10/29 13:19:04;;;;;;;0.60;0.10;;;20.10;1.00;;;;;;4922549;29;20476;-75
2022/10/29 13:22:03;;;;;;;0.60;0.20;;;20.10;1.00;;;;;;4923263;29;20522;-78
2022/10/29 13:24:31;;;;;;;0.60;0.10;;;20.10;1.00;;;;;;4928498;29;20453;-77
2022/10/29 13:27:03;;;;;;;0.60;0.10;;;20.10;1.00;;;;;;4940751;29;20487;-77
2022/10/29 13:29:41;;;;;;;0.60;0.20;;;20.10;1.00;;;;;;4949016;29;20456;-77
2022/10/29 13:32:29;;;;;;;0.60;0.10;;;20.00;1.00;;;;;;4954741;29;20488;-77
2022/10/29 13:34:58;;;;;;;2.00;1.80;;;20.00;1.00;;;;;;4954864;29;20445;-77
2022/10/29 13:37:52;;;;;;;0.60;0.20;;;20.10;1.00;;;;;;4953177;29;20468;-77
2022/10/29 13:40:56;;;;;;;0.60;0.10;;;20.10;1.00;;;;;;4936637;29;20452;-78
2022/10/29 13:43:24;;;;;;;0.60;0.10;;;20.10;1.00;;;;;;4951405;29;20428;-78
2022/10/29 13:46:02;;;;;;;0.60;0.10;;;20.10;1.00;;;;;;4943990;29;20532;-79
2022/10/29 13:48:34;;;;;;;0.60;0.10;;;20.10;1.00;;;;;;4944291;29;20476;-78
2022/10/29 13:51:06;;;;;;;0.60;0.10;;;20.00;1.00;;;;;;4943567;29;20535;-78
2022/10/29 13:53:47;;;;;;;0.60;0.10;;;20.00;1.00;;;;;;4943277;29;20514;-78
2022/10/29 13:56:20;;;;;;;0.60;0.10;;;20.10;1.00;;;;;;4942251;29;20519;-78
2022/10/29 13:58:51;;;;;;;0.60;0.17;;;20.00;1.00;;;;;;4942833;29;20475;-77
2022/10/29 14:01:21;;;;;;;0.60;0.10;;;20.10;1.00;;;;;;4942419;29;20753;-79
2022/10/29 14:03:59;;;;;;;0.60;0.20;;;20.10;1.00;;;;;;4942407;29;20456;-78
2022/10/29 14:06:32;;;;;;;0.60;0.10;;;20.10;1.00;;;;;;4942504;29;20484;-79
2022/10/29 14:09:12;;;;;;;0.60;0.10;;;20.10;1.00;;;;;;4943613;29;20702;-77
2022/10/29 14:11:46;;;;;;;0.60;0.10;;;20.20;1.00;;;;;;4952111;29;20642;-77
2022/10/29 14:14:29;;;;;;;0.60;0.20;;;20.20;1.00;;;;;;4944697;29;20496;-76
2022/10/29 14:17:11;;;;;;;0.60;0.10;;;20.20;1.00;;;;;;4941401;29;20456;-77
2022/10/29 14:19:44;;;;;;;0.60;0.10;;;20.20;1.00;;;;;;4944702;29;20479;-77
2022/10/29 14:22:32;;;;;;;0.60;0.10;;;20.30;1.00;;;;;;4943455;29;20486;-79
2022/10/29 14:25:03;;;;;;;0.60;0.10;;;20.20;1.00;;;;;;4941993;29;20444;-79
2022/10/29 14:27:31;;;;;;;0.60;0.10;;;20.20;1.00;;;;;;4942072;29;20495;-78
2022/10/29 14:30:13;;;;;;;0.60;0.10;;;20.20;1.00;;;;;;4945445;29;20507;-79
2022/10/29 14:32:40;;;;;;;0.60;0.20;;;20.20;1.00;;;;;;4934185;29;20460;-79
2022/10/29 14:35:15;;;;;;;0.60;0.10;;;20.20;1.00;;;;;;4924004;29;20519;-75
2022/10/29 14:37:46;;;;;;;0.60;0.20;;;20.20;1.00;;;;;;4937304;29;20455;-76
2022/10/29 14:40:20;;;;;;;0.60;0.10;;;20.20;1.00;;;;;;4943033;29;20448;-77
2022/10/29 14:42:53;;;;;;;1.03;0.93;;;20.20;1.00;;;;;;4947540;29;20444;-75
2022/10/29 14:45:24;;;;;;;0.60;0.20;;;20.20;1.00;;;;;;4938695;29;20481;-77
2022/10/29 14:47:54;;;;;;;0.60;0.10;;;20.20;1.00;;;;;;4939864;29;21064;-78
2022/10/29 14:50:24;;;;;;;0.60;0.10;;;20.20;1.00;;;;;;4941909;29;20470;-79
2022/10/29 14:52:54;;;;;;;7.67;7.20;;;20.20;1.00;;;;;;4938696;29;20448;-76
2022/10/29 14:55:27;;;;;;;0.60;0.10;;;20.20;1.00;;;;;;4928028;29;20455;-76
2022/10/29 14:58:03;;;;;;;0.60;0.10;;;20.20;1.00;;;;;;4939491;29;20476;-77
2022/10/29 15:00:35;;;;;;;0.60;0.20;;;20.20;1.00;;;;;;4945893;29;20455;-78
2022/10/29 15:03:04;;;;;;;0.60;0.20;;;20.20;1.00;;;;;;4951006;29;20800;-76
2022/10/29 15:05:34;;;;;;;0.60;0.10;;;20.20;1.00;;;;;;4940560;29;20808;-77
2022/10/29 15:08:13;;;;;;;1.80;1.70;;;20.20;1.00;;;;;;4929168;29;20611;-76
2022/10/29 15:10:47;;;;;;;0.60;0.20;;;20.10;1.00;;;;;;4934387;29;20958;-77
2022/10/29 15:13:22;;;;;;;0.60;0.20;;;20.10;1.00;;;;;;4921264;29;20444;-78
2022/10/29 15:15:55;;;;;;;0.60;0.10;;;20.10;1.00;;;;;;4943083;29;20448;-78
2022/10/29 15:18:24;;;;;;;0.60;0.10;;;20.10;1.00;;;;;;4938398;29;20476;-77
2022/10/29 15:20:54;;;;;;;0.60;0.10;;;20.10;1.00;;;;;;4932791;29;20994;-76
2022/10/29 15:23:26;;;;;;;0.60;0.10;;;20.00;1.00;;;;;;4938113;29;20855;-77
2022/10/29 15:26:01;;;;;;;0.60;0.20;;;20.00;1.00;;;;;;4920615;29;20828;-78
2022/10/29 15:28:30;;;;;;;0.60;0.10;;;19.90;1.00;;;;;;4943992;29;20486;-76
2022/10/29 15:31:01;;;;;;;0.60;0.20;;;19.90;1.00;;;;;;4942198;29;20456;-78
2022/10/29 15:33:31;;;;;;;0.60;0.10;;;19.90;1.00;;;;;;4928430;29;20460;-77
2022/10/29 15:36:01;;;;;;;0.60;0.20;;;19.90;1.00;;;;;;4923293;29;20453;-77
2022/10/29 15:39:02;;;;;;;0.60;0.10;;;19.80;1.00;;;;;;4945303;29;20833;-77
2022/10/29 15:41:37;;;;;;;0.60;0.10;;;19.80;1.00;;;;;;4944973;29;20453;-78
2022/10/29 15:44:27;;;;;;;0.60;0.10;;;19.70;1.00;;;;;;4944381;29;20463;-76
2022/10/29 15:46:58;;;;;;;0.60;0.20;;;19.80;1.00;;;;;;4951857;29;20495;-77
2022/10/29 15:49:26;;;;;;;0.60;0.10;;;19.70;1.00;;;;;;4951657;29;20451;-77
2022/10/29 15:52:00;;;;;;;0.60;0.10;;;19.70;1.00;;;;;;4945006;29;20452;-77
2022/10/29 15:54:29;;;;;;;0.60;0.10;;;19.60;1.00;;;;;;4942194;29;20475;-77
2022/10/29 15:56:58;;;;;;;0.60;0.10;;;19.60;1.00;;;;;;4934122;29;20452;-76
2022/10/29 15:59:26;;;;;;;0.60;0.10;;;19.60;1.00;;;;;;4938473;29;20448;-77
2022/10/29 16:01:54;;;;;;;0.60;0.10;;;19.60;1.00;;;;;;4938033;29;20466;-76
2022/10/29 16:04:22;;;;;;;0.60;0.10;;;18.90;1.00;;;;;;4935902;29;20448;-75
2022/10/29 16:06:52;;;;;;;1.23;1.13;;;19.50;1.00;;;;;;4935243;29;20451;-74
2022/10/29 16:09:20;;;;;;;0.60;0.20;;;19.50;1.00;;;;;;4935982;29;20503;-74
2022/10/29 16:11:49;;;;;;;0.60;0.10;;;19.40;1.00;;;;;;4921744;29;20441;-74
2022/10/29 16:14:18;;;;;;;0.60;0.10;;;19.30;1.00;;;;;;4916658;29;20477;-74
2022/10/29 16:16:46;;;;;;;0.60;0.10;;;19.30;1.00;;;;;;4920799;29;20865;-74
2022/10/29 16:19:14;;;;;;;0.60;0.10;;;19.30;1.00;;;;;;4934811;29;20602;-73
2022/10/29 16:21:42;;;;;;;0.60;0.20;;;19.20;1.00;;;;;;4935724;29;20448;-73
2022/10/29 16:24:14;;;;;;;0.60;0.10;;;19.20;1.00;;;;;;4935676;29;20970;-75
2022/10/29 16:26:42;;;;;;;0.60;0.10;;;19.20;1.00;;;;;;4935403;29;20452;-77
2022/10/29 16:29:10;;;;;;;0.60;0.10;;;19.10;1.00;;;;;;4935068;29;20483;-75
2022/10/29 16:31:39;;;;;;;0.60;0.17;;;19.10;1.00;;;;;;4934821;29;20452;-77
2022/10/29 16:34:13;;;;;;;0.60;0.10;;;19.00;1.00;;;;;;4934822;29;20447;-74
2022/10/29 16:36:40;;;;;;;0.60;0.10;;;19.00;1.00;;;;;;4935557;29;20974;-75
2022/10/29 16:39:08;;;;;;;0.70;0.40;;;19.00;1.00;;;;;;4934481;29;20482;-75
2022/10/29 16:41:36;;;;;;;0.60;0.10;;;18.90;1.00;;;;;;4935534;29;20475;-74
2022/10/29 16:44:04;;;;;;;0.60;0.10;;;18.90;1.00;;;;;;4934747;29;20447;-76
2022/10/29 16:46:32;;;;;;;0.60;0.10;;;18.80;1.00;;;;;;4935118;29;21311;-75
2022/10/29 16:49:01;;;;;;;0.60;0.10;;;18.70;1.00;;;;;;4987329;23;20490;-74
2022/10/29 16:51:32;;;;;;;0.60;0.10;;;18.70;1.00;;;;;;4973807;28;20481;-74
2022/10/29 16:54:00;;;;;;;0.60;0.10;;;18.70;1.00;;;;;;4973558;28;20489;-74
2022/10/29 16:56:28;;;;;;;0.60;0.10;;;18.70;1.00;;;;;;4974285;28;20534;-73
2022/10/29 16:58:57;;;;;;;0.60;0.10;;;18.60;1.00;;;;;;4992568;28;20899;-74
2022/10/29 17:01:28;;;;;;;0.60;0.10;;;18.60;1.00;;;;;;4974864;28;20446;-74
2022/10/29 17:03:56;;;;;;;0.60;0.20;;;18.60;1.00;;;;;;4977320;28;20509;-74
2022/10/29 17:06:26;;;;;;;0.60;0.10;;;18.50;1.00;;;;;;4977259;28;20442;-73
2022/10/29 17:08:53;;;;;;;0.60;0.10;;;18.50;1.00;;;;;;4970675;28;20517;-74
2022/10/29 17:11:21;;;;;;;0.60;0.10;;;18.50;1.00;;;;;;4971387;28;20453;-73
2022/10/29 17:13:49;;;;;;;0.60;0.10;;;18.50;1.00;;;;;;4984257;28;20485;-74
2022/10/29 17:16:17;;;;;;;0.60;0.10;;;18.50;1.00;;;;;;4995726;28;20511;-74
2022/10/29 17:18:49;;;;;;;0.60;0.10;;;18.50;1.00;;;;;;4995519;28;20461;-73
2022/10/29 17:21:17;;;;;;;0.60;0.10;;;18.50;1.00;;;;;;4992801;28;20492;-72
2022/10/29 17:23:46;;;;;;;0.60;0.10;;;18.50;1.00;;;;;;4976684;28;20462;-74
2022/10/29 17:26:14;;;;;;;0.60;0.20;;;18.50;1.00;;;;;;4975795;28;20478;-72
2022/10/29 17:28:42;;;;;;;0.60;0.10;;;18.50;1.00;;;;;;4975860;28;20518;-74